createdAt,value
2018-10-17T00:00:00.830Z,1012.43
2018-10-17T00:01:00.862Z,1012.40
2018-10-17T00:02:00.865Z,1012.40
2018-10-17T00:03:00.891Z,1012.42
2018-10-17T00:04:00.904Z,1012.41
2018-10-17T00:05:00.981Z,1012.42
2018-10-17T00:06:00.941Z,1012.40
2018-10-17T00:07:01.024Z,1012.35
2018-10-17T00:08:00.977Z,1012.38
2018-10-17T00:09:00.996Z,1012.40
2018-10-17T00:10:01.014Z,1012.37
2018-10-17T00:11:01.072Z,1012.39
2018-10-17T00:12:01.056Z,1012.36
2018-10-17T00:13:01.112Z,1012.35
2018-10-17T00:14:01.087Z,1012.35
2018-10-17T00:15:01.113Z,1012.34
2018-10-17T00:16:01.134Z,1012.33
2018-10-17T00:17:01.169Z,1012.35
2018-10-17T00:18:01.157Z,1012.36
2018-10-17T00:19:01.237Z,1012.39
2018-10-17T00:20:01.200Z,1012.39
2018-10-17T00:21:01.213Z,1012.41
2018-10-17T00:22:01.236Z,1012.42
2018-10-17T00:23:01.322Z,1012.45
2018-10-17T00:24:01.277Z,1012.43
2018-10-17T00:25:01.324Z,1012.41
2018-10-17T00:26:01.319Z,1012.38
2018-10-17T00:27:01.325Z,1012.35
2018-10-17T00:28:01.356Z,1012.41
2018-10-17T00:29:01.431Z,1012.38
2018-10-17T00:30:01.401Z,1012.44
2018-10-17T00:31:01.466Z,1012.44
2018-10-17T00:32:01.433Z,1012.42
2018-10-17T00:33:01.444Z,1012.38
2018-10-17T00:34:01.455Z,1012.41
2018-10-17T00:35:01.523Z,1012.38
2018-10-17T00:36:01.514Z,1012.41
2018-10-17T00:37:01.569Z,1012.34
2018-10-17T00:38:01.539Z,1012.38
2018-10-17T00:39:01.553Z,1012.39
2018-10-17T00:40:01.567Z,1012.39
2018-10-17T00:41:01.640Z,1012.38
2018-10-17T00:42:01.604Z,1012.30
2018-10-17T00:43:01.632Z,1012.33
2018-10-17T00:44:01.655Z,1012.32
2018-10-17T00:45:01.663Z,1012.30
2018-10-17T00:46:01.687Z,1012.31
2018-10-17T00:47:01.708Z,1012.35
2018-10-17T00:48:01.718Z,1012.35
2018-10-17T00:49:01.765Z,1012.34
2018-10-17T00:50:01.754Z,1012.39
2018-10-17T00:51:01.775Z,1012.41
2018-10-17T00:52:01.792Z,1012.40
2018-10-17T00:53:01.841Z,1012.36
2018-10-17T00:54:01.830Z,1012.36
2018-10-17T00:55:01.872Z,1012.37
2018-10-17T00:56:01.863Z,1012.38
2018-10-17T00:57:01.880Z,1012.38
2018-10-17T00:58:01.915Z,1012.38
2018-10-17T00:59:01.995Z,1012.39
2018-10-17T01:00:01.945Z,1012.41
2018-10-17T01:01:02.027Z,1012.38
2018-10-17T01:02:01.978Z,1012.38
2018-10-17T01:03:02.000Z,1012.32
2018-10-17T01:04:02.021Z,1012.43
2018-10-17T01:05:02.098Z,1012.38
2018-10-17T01:06:02.049Z,1012.38
2018-10-17T01:07:02.092Z,1012.38
2018-10-17T01:08:02.087Z,1012.38
2018-10-17T01:09:02.103Z,1012.40
2018-10-17T01:10:02.127Z,1012.42
2018-10-17T01:11:02.164Z,1012.42
2018-10-17T01:12:02.157Z,1012.39
2018-10-17T01:13:02.209Z,1012.44
2018-10-17T01:14:02.197Z,1012.46
2018-10-17T01:15:02.212Z,1012.45
2018-10-17T01:16:02.234Z,1012.49
2018-10-17T01:17:02.289Z,1012.42
2018-10-17T01:18:02.266Z,1012.48
2018-10-17T01:19:02.325Z,1012.50
2018-10-17T01:20:02.311Z,1012.46
2018-10-17T01:21:02.330Z,1012.46
2018-10-17T01:22:02.344Z,1012.47
2018-10-17T01:23:02.461Z,1012.43
2018-10-17T01:24:02.380Z,1012.43
2018-10-17T01:25:02.431Z,1012.41
2018-10-17T01:26:02.417Z,1012.42
2018-10-17T01:27:02.437Z,1012.45
2018-10-17T01:28:02.457Z,1012.36
2018-10-17T01:29:02.543Z,1012.42
2018-10-17T01:30:02.494Z,1012.47
2018-10-17T01:31:02.536Z,1012.41
2018-10-17T01:32:02.536Z,1012.44
2018-10-17T01:33:02.560Z,1012.41
2018-10-17T01:34:02.563Z,1012.40
2018-10-17T01:35:02.600Z,1012.41
2018-10-17T01:36:02.597Z,1012.45
2018-10-17T01:37:02.621Z,1012.45
2018-10-17T01:38:02.636Z,1012.44
2018-10-17T01:39:02.657Z,1012.45
2018-10-17T01:40:02.677Z,1012.39
2018-10-17T01:41:02.762Z,1012.34
2018-10-17T01:42:02.704Z,1012.35
2018-10-17T01:43:02.819Z,1012.38
2018-10-17T01:44:02.743Z,1012.36
2018-10-17T01:45:02.765Z,1012.37
2018-10-17T01:46:02.787Z,1012.41
2018-10-17T01:47:02.865Z,1012.41
2018-10-17T01:48:02.821Z,1012.40
2018-10-17T01:49:03.274Z,1012.42
2018-10-17T01:50:02.855Z,1012.43
2018-10-17T01:51:02.870Z,1012.42
2018-10-17T01:52:02.895Z,1012.38
2018-10-17T01:53:02.922Z,1012.39
2018-10-17T01:54:02.936Z,1012.44
2018-10-17T01:55:02.994Z,1012.42
2018-10-17T01:56:02.963Z,1012.37
2018-10-17T01:57:02.980Z,1012.36
2018-10-17T01:58:02.995Z,1012.29
2018-10-17T01:59:03.022Z,1012.31
2018-10-17T02:00:03.036Z,1012.30
2018-10-17T02:01:03.108Z,1012.29
2018-10-17T02:02:03.071Z,1012.33
2018-10-17T02:03:03.087Z,1012.27
2018-10-17T02:04:03.111Z,1012.25
2018-10-17T02:05:03.136Z,1012.27
2018-10-17T02:06:03.140Z,1012.26
2018-10-17T02:07:03.186Z,1012.22
2018-10-17T02:08:03.181Z,1012.21
2018-10-17T02:09:03.197Z,1012.26
2018-10-17T02:10:03.219Z,1012.22
2018-10-17T02:11:03.246Z,1012.20
2018-10-17T02:12:03.253Z,1012.23
2018-10-17T02:13:03.337Z,1012.17
2018-10-17T02:14:03.288Z,1012.22
2018-10-17T02:15:03.306Z,1012.14
2018-10-17T02:16:03.325Z,1012.20
2018-10-17T02:17:03.404Z,1012.18
2018-10-17T02:18:03.363Z,1012.13
2018-10-17T02:19:03.430Z,1012.12
2018-10-17T02:20:03.405Z,1012.08
2018-10-17T02:21:03.412Z,1012.11
2018-10-17T02:22:03.431Z,1012.09
2018-10-17T02:23:03.504Z,1012.11
2018-10-17T02:24:03.465Z,1012.14
2018-10-17T02:25:03.559Z,1012.11
2018-10-17T02:26:03.502Z,1012.08
2018-10-17T02:27:03.515Z,1012.12
2018-10-17T02:28:03.536Z,1012.08
2018-10-17T02:29:03.581Z,1012.09
2018-10-17T02:30:03.625Z,1012.12
2018-10-17T02:31:03.675Z,1012.15
2018-10-17T02:32:03.614Z,1012.13
2018-10-17T02:33:03.632Z,1012.16
2018-10-17T02:34:03.645Z,1012.16
2018-10-17T02:35:03.690Z,1012.21
2018-10-17T02:36:03.694Z,1012.14
2018-10-17T02:37:03.748Z,1012.16
2018-10-17T02:38:03.714Z,1012.17
2018-10-17T02:39:03.741Z,1012.21
2018-10-17T02:40:03.751Z,1012.18
2018-10-17T02:41:03.839Z,1012.16
2018-10-17T02:42:03.794Z,1012.19
2018-10-17T02:43:03.878Z,1012.23
2018-10-17T02:44:03.821Z,1012.24
2018-10-17T02:45:03.836Z,1012.22
2018-10-17T02:46:03.858Z,1012.25
2018-10-17T02:47:03.895Z,1012.25
2018-10-17T02:48:03.891Z,1012.23
2018-10-17T02:49:03.910Z,1012.26
2018-10-17T02:50:03.924Z,1012.20
2018-10-17T02:51:03.946Z,1012.25
2018-10-17T02:52:03.963Z,1012.24
2018-10-17T02:53:04.025Z,1012.27
2018-10-17T02:54:03.996Z,1012.24
2018-10-17T02:55:04.041Z,1012.23
2018-10-17T02:56:04.033Z,1012.23
2018-10-17T02:57:04.042Z,1012.28
2018-10-17T02:58:04.069Z,1012.27
2018-10-17T02:59:04.194Z,1012.28
2018-10-17T03:00:04.098Z,1012.25
2018-10-17T03:01:04.135Z,1012.25
2018-10-17T03:02:04.131Z,1012.22
2018-10-17T03:03:04.150Z,1012.29
2018-10-17T03:04:04.163Z,1012.31
2018-10-17T03:05:04.249Z,1012.28
2018-10-17T03:06:04.204Z,1012.31
2018-10-17T03:07:04.229Z,1012.26
2018-10-17T03:08:04.234Z,1012.30
2018-10-17T03:38:28.657Z,1012.34
2018-10-17T03:39:28.638Z,1012.33
2018-10-17T03:41:20.549Z,1012.30
2018-10-17T03:42:20.547Z,1012.28
2018-10-17T03:44:12.472Z,1012.34
2018-10-17T03:45:12.465Z,1012.32
2018-10-17T03:47:04.413Z,1012.37
2018-10-17T03:48:04.385Z,1012.30
2018-10-17T03:49:56.345Z,1012.37
2018-10-17T03:50:56.297Z,1012.34
2018-10-17T03:52:48.250Z,1012.39
2018-10-17T03:53:48.222Z,1012.39
2018-10-17T03:55:40.131Z,1012.39
2018-10-17T03:56:40.141Z,1012.42
2018-10-17T03:58:32.076Z,1012.40
2018-10-17T03:59:32.278Z,1012.49
2018-10-17T04:01:23.980Z,1012.59
2018-10-17T04:02:23.990Z,1012.60
2018-10-17T04:04:15.925Z,1012.79
2018-10-17T04:05:15.998Z,1012.75
2018-10-17T04:07:07.916Z,1012.80
2018-10-17T04:08:07.841Z,1012.73
2018-10-17T04:09:59.779Z,1012.55
2018-10-17T04:10:59.785Z,1012.57
2018-10-17T04:12:51.713Z,1012.65
2018-10-17T04:13:51.699Z,1012.63
2018-10-17T04:15:43.611Z,1012.62
2018-10-17T04:16:43.617Z,1012.69
2018-10-17T04:18:35.567Z,1012.68
2018-10-17T04:19:35.556Z,1012.73
2018-10-17T04:21:27.474Z,1012.68
2018-10-17T04:22:27.544Z,1012.68
2018-10-17T04:24:19.431Z,1012.73
2018-10-17T04:25:19.460Z,1012.69
2018-10-17T04:27:11.340Z,1012.72
2018-10-17T04:28:11.376Z,1012.67
2018-10-17T04:30:03.290Z,1012.72
2018-10-17T04:31:03.309Z,1012.78
2018-10-17T04:32:55.201Z,1012.74
2018-10-17T04:33:55.193Z,1012.75
2018-10-17T04:35:47.116Z,1012.71
2018-10-17T04:36:47.129Z,1012.73
2018-10-17T04:38:39.084Z,1012.69
2018-10-17T04:39:39.060Z,1012.71
2018-10-17T04:41:30.978Z,1012.73
2018-10-17T04:42:30.984Z,1012.69
2018-10-17T04:44:22.930Z,1012.70
2018-10-17T04:45:22.921Z,1012.67
2018-10-17T04:47:14.913Z,1012.73
2018-10-17T04:48:14.851Z,1012.73
2018-10-17T04:50:06.789Z,1012.70
2018-10-17T04:51:06.778Z,1012.69
2018-10-17T04:52:58.773Z,1012.64
2018-10-17T04:53:58.705Z,1012.70
2018-10-17T04:55:50.645Z,1012.67
2018-10-17T04:56:50.629Z,1012.63
2018-10-17T04:58:42.572Z,1012.65
2018-10-17T04:59:42.566Z,1012.69
2018-10-17T05:01:34.477Z,1012.67
2018-10-17T05:02:34.487Z,1012.67
2018-10-17T05:04:26.464Z,1012.60
2018-10-17T05:05:26.422Z,1012.60
2018-10-17T05:07:18.380Z,1012.66
2018-10-17T05:08:18.358Z,1012.64
2018-10-17T05:10:10.309Z,1012.60
2018-10-17T05:11:10.320Z,1012.59
2018-10-17T05:13:02.262Z,1012.60
2018-10-17T05:14:02.238Z,1012.62
2018-10-17T05:15:54.150Z,1012.60
2018-10-17T05:16:54.163Z,1012.63
2018-10-17T05:18:46.107Z,1012.57
2018-10-17T05:19:46.102Z,1012.55
2018-10-17T05:21:38.019Z,1012.58
2018-10-17T05:22:38.026Z,1012.60
2018-10-17T05:24:29.962Z,1012.63
2018-10-17T05:25:29.953Z,1012.62
2018-10-17T05:27:21.867Z,1012.62
2018-10-17T05:28:21.878Z,1012.64
2018-10-17T05:30:13.815Z,1012.61
2018-10-17T05:31:13.873Z,1012.59
2018-10-17T05:33:05.742Z,1012.61
2018-10-17T05:34:05.736Z,1012.62
2018-10-17T05:35:57.659Z,1012.66
2018-10-17T05:36:57.676Z,1012.63
2018-10-17T05:38:49.611Z,1012.59
2018-10-17T05:39:49.605Z,1012.56
2018-10-17T05:41:41.517Z,1012.58
2018-10-17T05:42:41.534Z,1012.59
2018-10-17T05:44:33.511Z,1012.59
2018-10-17T05:45:33.459Z,1012.64
2018-10-17T05:47:25.376Z,1012.59
2018-10-17T05:48:25.396Z,1012.56
2018-10-17T05:50:17.323Z,1012.57
2018-10-17T05:51:17.315Z,1012.60
2018-10-17T05:53:09.294Z,1012.55
2018-10-17T05:54:09.239Z,1012.58
2018-10-17T05:56:01.160Z,1012.62
2018-10-17T05:57:01.171Z,1012.60
2018-10-17T05:58:53.159Z,1012.63
2018-10-17T05:59:53.092Z,1012.64
2018-10-17T06:01:45.107Z,1012.64
2018-10-17T06:02:45.026Z,1012.69
2018-10-17T06:04:36.973Z,1012.74
2018-10-17T06:05:36.950Z,1012.73
2018-10-17T06:07:28.875Z,1012.75
2018-10-17T06:08:28.882Z,1012.77
2018-10-17T06:10:20.970Z,1012.78
2018-10-17T06:11:20.814Z,1012.77
2018-10-17T06:13:12.795Z,1012.79
2018-10-17T06:14:12.737Z,1012.79
2018-10-17T06:16:04.659Z,1012.79
2018-10-17T06:17:04.704Z,1012.85
2018-10-17T06:18:56.648Z,1012.85
2018-10-17T06:19:56.591Z,1012.87
2018-10-17T06:21:48.519Z,1012.83
2018-10-17T06:22:48.529Z,1012.87
2018-10-17T06:24:40.468Z,1012.78
2018-10-17T06:25:40.460Z,1012.80
2018-10-17T06:27:32.373Z,1012.87
2018-10-17T06:28:32.392Z,1012.85
2018-10-17T06:30:24.339Z,1012.85
2018-10-17T06:31:24.332Z,1012.84
2018-10-17T06:33:16.736Z,1012.84
2018-10-17T06:34:16.874Z,1012.85
2018-10-17T06:36:08.680Z,1012.88
2018-10-17T06:37:08.714Z,1012.90
2018-10-17T06:39:00.610Z,1012.91
2018-10-17T06:40:00.598Z,1012.92
2018-10-17T06:41:52.517Z,1012.94
2018-10-17T06:42:52.592Z,1012.90
2018-10-17T06:44:44.462Z,1012.86
2018-10-17T06:45:44.461Z,1012.87
2018-10-17T06:47:36.368Z,1012.87
2018-10-17T06:48:36.379Z,1012.85
2018-10-17T06:50:28.316Z,1012.90
2018-10-17T06:51:28.302Z,1012.89
2018-10-17T06:53:20.229Z,1012.87
2018-10-17T06:54:20.293Z,1012.85
2018-10-17T06:56:12.175Z,1012.88
2018-10-17T06:57:12.163Z,1012.86
2018-10-17T06:59:04.151Z,1012.90
2018-10-17T07:00:04.089Z,1012.86
2018-10-17T07:01:56.096Z,1012.84
2018-10-17T07:02:56.019Z,1012.87
2018-10-17T07:04:47.952Z,1012.91
2018-10-17T07:05:47.938Z,1012.91
2018-10-17T07:07:39.863Z,1012.88
2018-10-17T07:08:39.985Z,1012.90
2018-10-17T07:10:31.816Z,1012.90
2018-10-17T07:11:31.812Z,1012.98
2018-10-17T07:13:23.714Z,1012.95
2018-10-17T07:14:23.724Z,1012.95
2018-10-17T07:16:15.675Z,1012.95
2018-10-17T07:17:15.666Z,1012.97
2018-10-17T07:19:07.622Z,1012.97
2018-10-17T07:20:07.589Z,1012.94
2018-10-17T07:21:59.512Z,1012.95
2018-10-17T07:22:59.527Z,1012.97
2018-10-17T07:24:51.475Z,1012.99
2018-10-17T07:25:51.444Z,1012.97
2018-10-17T07:27:43.362Z,1013.02
2018-10-17T07:28:43.391Z,1013.02
2018-10-17T07:29:43.662Z,1013.04
2018-10-17T07:30:43.415Z,1013.03
2018-10-17T07:31:43.421Z,1013.06
2018-10-17T07:32:43.440Z,1013.05
2018-10-17T07:33:43.458Z,1013.03
2018-10-17T07:34:43.472Z,1013.02
2018-10-17T07:35:43.538Z,1013.03
2018-10-17T07:36:43.513Z,1013.08
2018-10-17T07:37:43.530Z,1013.09
2018-10-17T07:38:43.547Z,1013.07
2018-10-17T07:39:43.563Z,1013.13
2018-10-17T07:40:43.577Z,1013.09
2018-10-17T07:41:43.596Z,1013.13
2018-10-17T07:42:43.615Z,1013.11
2018-10-17T07:43:43.636Z,1013.07
2018-10-17T07:44:43.645Z,1013.14
2018-10-17T07:45:43.767Z,1013.12
2018-10-17T07:46:43.682Z,1013.13
2018-10-17T07:47:43.704Z,1013.15
2018-10-17T07:48:43.718Z,1013.15
2018-10-17T07:49:43.740Z,1013.11
2018-10-17T07:50:43.759Z,1013.17
2018-10-17T07:51:43.770Z,1013.19
2018-10-17T07:52:43.835Z,1013.23
2018-10-17T07:53:43.823Z,1013.24
2018-10-17T07:54:43.841Z,1013.20
2018-10-17T07:55:43.845Z,1013.29
2018-10-17T07:56:43.858Z,1013.28
2018-10-17T07:57:43.877Z,1013.28
2018-10-17T07:58:43.907Z,1013.26
2018-10-17T07:59:43.963Z,1013.27
2018-10-17T08:00:43.932Z,1013.27
2018-10-17T08:01:43.951Z,1013.31
2018-10-17T08:02:43.966Z,1013.32
2018-10-17T08:03:43.982Z,1013.35
2018-10-17T08:04:44.004Z,1013.31
2018-10-17T08:05:44.022Z,1013.34
2018-10-17T08:06:44.079Z,1013.38
2018-10-17T08:07:44.084Z,1013.35
2018-10-17T08:08:44.074Z,1013.43
2018-10-17T08:09:44.098Z,1013.42
2018-10-17T08:10:44.111Z,1013.45
2018-10-17T08:11:44.132Z,1013.45
2018-10-17T08:12:44.151Z,1013.49
2018-10-17T08:13:44.168Z,1013.49
2018-10-17T08:14:44.185Z,1013.52
2018-10-17T08:15:44.205Z,1013.48
2018-10-17T08:16:44.225Z,1013.53
2018-10-17T08:17:44.261Z,1013.55
2018-10-17T08:18:44.264Z,1013.56
2018-10-17T08:19:44.281Z,1013.52
2018-10-17T08:20:44.303Z,1013.56
2018-10-17T08:21:44.318Z,1013.56
2018-10-17T08:22:44.336Z,1013.54
2018-10-17T08:23:44.372Z,1013.52
2018-10-17T08:24:44.374Z,1013.56
2018-10-17T08:25:44.396Z,1013.55
2018-10-17T08:26:44.409Z,1013.53
2018-10-17T08:27:44.429Z,1013.57
2018-10-17T08:28:44.447Z,1013.54
2018-10-17T08:29:44.469Z,1013.55
2018-10-17T08:30:44.500Z,1013.58
2018-10-17T08:31:44.508Z,1013.53
2018-10-17T08:32:44.530Z,1013.57
2018-10-17T08:33:44.543Z,1013.55
2018-10-17T08:34:44.566Z,1013.54
2018-10-17T08:35:44.690Z,1013.55
2018-10-17T08:36:44.777Z,1013.56
2018-10-17T08:37:44.959Z,1013.57
2018-10-17T08:38:44.640Z,1013.55
2018-10-17T08:39:44.661Z,1013.52
2018-10-17T08:40:44.687Z,1013.59
2018-10-17T08:41:44.702Z,1013.59
2018-10-17T08:42:44.717Z,1013.61
2018-10-17T08:43:44.738Z,1013.61
2018-10-17T08:44:44.757Z,1013.59
2018-10-17T08:45:44.773Z,1013.57
2018-10-17T08:46:44.795Z,1013.56
2018-10-17T08:47:44.811Z,1013.63
2018-10-17T08:48:44.831Z,1013.60
2018-10-17T08:49:44.851Z,1013.63
2018-10-17T08:50:44.963Z,1013.62
2018-10-17T08:51:44.891Z,1013.67
2018-10-17T08:52:44.909Z,1013.62
2018-10-17T08:53:44.933Z,1013.63
2018-10-17T08:54:44.948Z,1013.64
2018-10-17T08:55:44.969Z,1013.70
2018-10-17T08:56:44.986Z,1013.69
2018-10-17T08:57:45.027Z,1013.70
2018-10-17T08:58:45.027Z,1013.73
2018-10-17T08:59:45.047Z,1013.71
2018-10-17T09:00:45.068Z,1013.67
2018-10-17T09:01:45.094Z,1013.69
2018-10-17T09:02:45.104Z,1013.70
2018-10-17T09:03:45.120Z,1013.65
2018-10-17T09:04:45.141Z,1013.67
2018-10-17T09:05:45.161Z,1013.69
2018-10-17T09:06:45.200Z,1013.67
2018-10-17T09:07:45.232Z,1013.66
2018-10-17T09:08:45.222Z,1013.67
2018-10-17T09:09:45.242Z,1013.70
2018-10-17T09:10:45.259Z,1013.69
2018-10-17T09:11:45.276Z,1013.68
2018-10-17T09:12:45.299Z,1013.71
2018-10-17T09:13:45.318Z,1013.71
2018-10-17T09:14:45.336Z,1013.71
2018-10-17T09:15:45.358Z,1013.71
2018-10-17T09:16:45.443Z,1013.73
2018-10-17T09:17:45.394Z,1013.73
2018-10-17T09:18:45.415Z,1013.70
2018-10-17T09:19:45.665Z,1013.71
2018-10-17T09:20:45.706Z,1013.78
2018-10-17T09:21:45.732Z,1013.78
2018-10-17T09:22:45.660Z,1013.78
2018-10-17T09:23:45.515Z,1013.77
2018-10-17T09:24:45.532Z,1013.82
2018-10-17T09:25:45.667Z,1013.83
2018-10-17T09:26:45.573Z,1013.84
2018-10-17T09:27:45.594Z,1013.78
2018-10-17T09:28:45.615Z,1013.84
2018-10-17T09:29:45.632Z,1013.77
2018-10-17T09:30:45.761Z,1013.78
2018-10-17T09:31:45.674Z,1013.81
2018-10-17T09:32:45.702Z,1013.80
2018-10-17T09:33:45.711Z,1013.76
2018-10-17T09:34:45.733Z,1013.74
2018-10-17T09:35:45.832Z,1013.77
2018-10-17T09:36:45.768Z,1013.78
2018-10-17T09:37:45.791Z,1013.74
2018-10-17T09:38:45.812Z,1013.76
2018-10-17T09:39:45.830Z,1013.75
2018-10-17T09:40:45.850Z,1013.77
2018-10-17T09:41:45.872Z,1013.79
2018-10-17T09:42:45.898Z,1013.76
2018-10-17T09:43:45.921Z,1013.79
2018-10-17T09:44:45.925Z,1013.78
2018-10-17T09:45:45.945Z,1013.82
2018-10-17T09:46:45.969Z,1013.84
2018-10-17T09:47:45.988Z,1013.80
2018-10-17T09:48:46.006Z,1013.80
2018-10-17T09:49:46.027Z,1013.81
2018-10-17T09:50:46.048Z,1013.85
2018-10-17T09:51:46.068Z,1013.82
2018-10-17T09:52:46.086Z,1013.87
2018-10-17T09:53:46.108Z,1013.83
2018-10-17T09:54:46.138Z,1013.85
2018-10-17T09:55:46.148Z,1013.84
2018-10-17T09:56:46.168Z,1013.89
2018-10-17T09:57:46.186Z,1013.83
2018-10-17T09:58:46.208Z,1013.86
2018-10-17T09:59:46.231Z,1013.86
2018-10-17T10:00:46.252Z,1013.85
2018-10-17T10:01:46.267Z,1013.84
2018-10-17T10:02:46.290Z,1013.86
2018-10-17T10:03:46.308Z,1013.84
2018-10-17T10:04:46.327Z,1013.84
2018-10-17T10:05:46.351Z,1013.83
2018-10-17T10:06:46.372Z,1013.83
2018-10-17T10:07:46.388Z,1013.81
2018-10-17T10:08:46.408Z,1013.82
2018-10-17T10:09:46.425Z,1013.82
2018-10-17T10:10:46.506Z,1013.85
2018-10-17T10:11:46.467Z,1013.85
2018-10-17T10:12:46.496Z,1013.83
2018-10-17T10:13:46.511Z,1013.82
2018-10-17T10:14:46.524Z,1013.82
2018-10-17T10:15:46.548Z,1013.82
2018-10-17T10:16:46.573Z,1013.82
2018-10-17T10:17:46.589Z,1013.81
2018-10-17T10:18:46.605Z,1013.84
2018-10-17T10:19:46.625Z,1013.80
2018-10-17T10:20:46.649Z,1013.83
2018-10-17T10:21:46.662Z,1013.81
2018-10-17T10:22:46.688Z,1013.80
2018-10-17T10:23:46.801Z,1013.84
2018-10-17T10:24:46.820Z,1013.81
2018-10-17T10:25:46.745Z,1013.79
2018-10-17T10:26:46.767Z,1013.73
2018-10-17T10:27:46.803Z,1013.79
2018-10-17T10:28:46.810Z,1013.74
2018-10-17T10:29:46.895Z,1013.73
2018-10-17T10:30:46.850Z,1013.68
2018-10-17T10:31:46.879Z,1013.73
2018-10-17T10:32:46.943Z,1013.73
2018-10-17T10:33:46.921Z,1013.72
2018-10-17T10:34:46.933Z,1013.68
2018-10-17T10:35:46.950Z,1013.71
2018-10-17T10:36:46.973Z,1013.65
2018-10-17T10:37:46.988Z,1013.70
2018-10-17T10:38:47.006Z,1013.70
2018-10-17T10:39:47.031Z,1013.66
2018-10-17T10:40:47.091Z,1013.71
2018-10-17T10:41:47.075Z,1013.71
2018-10-17T10:42:47.092Z,1013.74
2018-10-17T10:43:47.106Z,1013.71
2018-10-17T10:44:47.149Z,1013.71
2018-10-17T10:45:47.150Z,1013.72
2018-10-17T10:46:47.187Z,1013.68
2018-10-17T10:47:47.196Z,1013.70
2018-10-17T10:48:47.212Z,1013.67
2018-10-17T10:49:47.233Z,1013.64
2018-10-17T10:50:47.251Z,1013.66
2018-10-17T10:51:47.281Z,1013.65
2018-10-17T10:52:47.310Z,1013.63
2018-10-17T10:53:47.312Z,1013.66
2018-10-17T10:54:47.331Z,1013.62
2018-10-17T10:55:47.353Z,1013.57
2018-10-17T10:56:47.404Z,1013.55
2018-10-17T10:57:47.413Z,1013.57
2018-10-17T10:58:47.572Z,1013.56
2018-10-17T10:59:47.437Z,1013.56
2018-10-17T11:00:47.458Z,1013.55
2018-10-17T11:01:47.477Z,1013.53
2018-10-17T11:02:47.498Z,1013.57
2018-10-17T11:03:47.516Z,1013.58
2018-10-17T11:04:47.627Z,1013.60
2018-10-17T11:05:47.803Z,1013.59
2018-10-17T11:06:47.584Z,1013.57
2018-10-17T11:07:47.598Z,1013.61
2018-10-17T11:08:47.613Z,1013.59
2018-10-17T11:09:47.639Z,1013.56
2018-10-17T11:10:47.661Z,1013.54
2018-10-17T11:11:47.691Z,1013.55
2018-10-17T11:12:47.700Z,1013.59
2018-10-17T11:13:47.790Z,1013.55
2018-10-17T11:14:47.880Z,1013.56
2018-10-17T11:15:47.766Z,1013.48
2018-10-17T11:16:47.783Z,1013.54
2018-10-17T11:17:47.800Z,1013.51
2018-10-17T11:18:47.820Z,1013.55
2018-10-17T11:19:47.843Z,1013.52
2018-10-17T11:20:47.863Z,1013.48
2018-10-17T11:21:47.897Z,1013.49
2018-10-17T11:22:47.909Z,1013.51
2018-10-17T11:23:47.926Z,1013.48
2018-10-17T11:24:47.948Z,1013.48
2018-10-17T11:25:47.968Z,1013.48
2018-10-17T11:26:47.988Z,1013.43
2018-10-17T11:27:48.007Z,1013.48
2018-10-17T11:28:48.041Z,1013.42
2018-10-17T11:29:48.055Z,1013.41
2018-10-17T11:30:48.075Z,1013.46
2018-10-17T11:31:48.168Z,1013.45
2018-10-17T11:32:48.112Z,1013.43
2018-10-17T11:33:48.131Z,1013.40
2018-10-17T11:34:48.155Z,1013.43
2018-10-17T11:35:48.218Z,1013.41
2018-10-17T11:36:48.195Z,1013.45
2018-10-17T11:37:48.263Z,1013.45
2018-10-17T11:38:48.239Z,1013.43
2018-10-17T11:39:48.259Z,1013.43
2018-10-17T11:40:48.323Z,1013.44
2018-10-17T11:41:48.301Z,1013.41
2018-10-17T11:42:48.325Z,1013.44
2018-10-17T11:43:48.347Z,1013.43
2018-10-17T11:44:48.369Z,1013.46
2018-10-17T11:45:48.383Z,1013.42
2018-10-17T11:46:48.404Z,1013.43
2018-10-17T11:47:48.525Z,1013.45
2018-10-17T11:48:48.450Z,1013.42
2018-10-17T11:49:48.473Z,1013.43
2018-10-17T11:50:48.491Z,1013.40
2018-10-17T11:51:48.509Z,1013.38
2018-10-17T11:52:48.531Z,1013.36
2018-10-17T11:53:48.557Z,1013.34
2018-10-17T11:54:48.570Z,1013.30
2018-10-17T11:55:48.599Z,1013.29
2018-10-17T11:56:48.613Z,1013.29
2018-10-17T11:57:48.657Z,1013.33
2018-10-17T11:58:48.660Z,1013.28
2018-10-17T11:59:48.772Z,1013.30
2018-10-17T12:00:48.707Z,1013.29
2018-10-17T12:01:48.721Z,1013.27
2018-10-17T12:02:48.745Z,1013.27
2018-10-17T12:03:48.927Z,1013.27
2018-10-17T12:04:49.093Z,1013.24
2018-10-17T12:05:48.916Z,1013.24
2018-10-17T12:06:48.826Z,1013.25
2018-10-17T12:07:48.854Z,1013.27
2018-10-17T12:08:48.872Z,1013.23
2018-10-17T12:09:48.895Z,1013.21
2018-10-17T12:10:48.918Z,1013.21
2018-10-17T12:11:48.994Z,1013.21
2018-10-17T12:12:48.979Z,1013.18
2018-10-17T12:13:48.986Z,1013.19
2018-10-17T12:14:49.005Z,1013.10
2018-10-17T12:15:49.023Z,1013.14
2018-10-17T12:16:49.045Z,1013.09
2018-10-17T12:17:49.072Z,1013.14
2018-10-17T12:18:49.092Z,1013.09
2018-10-17T12:19:49.154Z,1013.13
2018-10-17T12:20:49.162Z,1013.11
2018-10-17T12:21:49.155Z,1013.12
2018-10-17T12:22:49.172Z,1013.15
2018-10-17T12:23:49.192Z,1013.07
2018-10-17T12:24:49.214Z,1013.05
2018-10-17T12:25:49.236Z,1013.03
2018-10-17T12:26:49.255Z,1013.02
2018-10-17T12:27:49.299Z,1013.05
2018-10-17T12:28:49.330Z,1013.03
2018-10-17T12:29:49.322Z,1013.05
2018-10-17T12:30:49.343Z,1013.05
2018-10-17T12:31:49.369Z,1013.04
2018-10-17T12:32:49.389Z,1013.05
2018-10-17T12:33:49.409Z,1013.03
2018-10-17T12:34:49.433Z,1013.02
2018-10-17T12:35:49.452Z,1013.05
2018-10-17T12:36:49.479Z,1013.00
2018-10-17T12:37:49.502Z,1013.04
2018-10-17T12:38:49.540Z,1013.02
2018-10-17T12:39:49.632Z,1013.01
2018-10-17T12:40:49.729Z,1013.00
2018-10-17T12:41:49.585Z,1013.00
2018-10-17T12:42:49.605Z,1012.96
2018-10-17T12:43:49.628Z,1012.96
2018-10-17T12:44:49.698Z,1013.00
2018-10-17T12:45:49.778Z,1012.97
2018-10-17T12:46:49.698Z,1013.01
2018-10-17T12:47:49.716Z,1012.99
2018-10-17T12:48:49.734Z,1012.96
2018-10-17T12:49:49.821Z,1012.92
2018-10-17T12:50:49.781Z,1012.97
2018-10-17T12:51:49.823Z,1012.94
2018-10-17T12:52:49.957Z,1012.95
2018-10-17T12:53:49.848Z,1012.95
2018-10-17T12:54:49.869Z,1012.93
2018-10-17T12:55:49.892Z,1012.93
2018-10-17T12:56:49.910Z,1012.92
2018-10-17T12:57:49.932Z,1012.97
2018-10-17T12:58:49.959Z,1012.99
2018-10-17T12:59:49.977Z,1012.98
2018-10-17T13:00:50.004Z,1013.00
2018-10-17T13:01:50.040Z,1013.03
2018-10-17T13:02:50.210Z,1012.96
2018-10-17T13:03:50.065Z,1012.96
2018-10-17T13:04:50.084Z,1013.01
2018-10-17T13:05:50.109Z,1012.96
2018-10-17T13:06:50.133Z,1012.98
2018-10-17T13:07:50.153Z,1012.98
2018-10-17T13:08:50.170Z,1012.93
2018-10-17T13:09:50.195Z,1012.96
2018-10-17T13:10:50.268Z,1012.93
2018-10-17T13:11:50.240Z,1012.96
2018-10-17T13:12:50.517Z,1012.94
2018-10-17T13:13:50.282Z,1012.92
2018-10-17T13:14:50.311Z,1012.90
2018-10-17T13:15:50.330Z,1012.92
2018-10-17T13:16:50.350Z,1012.90
2018-10-17T13:17:50.374Z,1012.91
2018-10-17T13:18:50.393Z,1012.89
2018-10-17T13:19:50.422Z,1012.92
2018-10-17T13:20:50.436Z,1012.93
2018-10-17T13:21:50.458Z,1012.90
2018-10-17T13:22:50.483Z,1012.91
2018-10-17T13:23:50.503Z,1012.90
2018-10-17T13:24:50.524Z,1012.88
2018-10-17T13:25:50.555Z,1012.92
2018-10-17T13:26:50.569Z,1012.92
2018-10-17T13:27:50.593Z,1012.92
2018-10-17T13:28:50.614Z,1012.87
2018-10-17T13:29:50.633Z,1012.88
2018-10-17T13:30:50.657Z,1012.89
2018-10-17T13:31:50.679Z,1012.89
2018-10-17T13:32:50.703Z,1012.87
2018-10-17T13:33:50.722Z,1012.83
2018-10-17T13:34:50.746Z,1012.89
2018-10-17T13:35:50.767Z,1012.81
2018-10-17T13:36:50.788Z,1012.83
2018-10-17T13:37:50.810Z,1012.83
2018-10-17T13:38:50.830Z,1012.84
2018-10-17T13:39:50.855Z,1012.80
2018-10-17T13:40:50.877Z,1012.81
2018-10-17T13:41:50.904Z,1012.81
2018-10-17T13:42:50.973Z,1012.83
2018-10-17T13:43:50.947Z,1012.84